BAW145 EGLL-LKPR
Flight info
| Callsign | BAW145 |
|---|---|
| Flight time | 1h 32m |
| Altitude | 35000 |
| Route | BPK Q295 BRAIN M197 REDFA DCT TACHA DCT NOMKA DCT SUVUT L620 PIKIB T620 LALUK DCT GOLOP |
| Aircraft | A320/M-SDE3FGHIRWY/LB1 |
Departure
| Time | 2026-05-05 13:55 |
|---|---|
| Airport | London Heathrow Airport (EGLL) |
Arrival
| Time | 2026-05-05 15:27 |
|---|---|
| Airport | Václav Havel Airport Prague (LKPR) |
| Time | Latitude | Longitude | Altitude | Speed | Heading |
|---|---|---|---|---|---|
| 2026-05-05 13:03 | 51.47232 | -0.48588 | 86 ft | 0 kts | 270° |
| 2026-05-05 13:44 | 51.47232 | -0.48572 | 89 ft | 3 kts | 270° |
| 2026-05-05 13:44 | 51.47232 | -0.48535 | 86 ft | 3 kts | 270° |
| 2026-05-05 13:45 | 51.47232 | -0.48505 | 87 ft | 3 kts | 256° |
| 2026-05-05 13:45 | 51.47242 | -0.48482 | 90 ft | 3 kts | 198° |
| 2026-05-05 13:45 | 51.47263 | -0.48476 | 87 ft | 3 kts | 180° |
| 2026-05-05 13:45 | 51.47285 | -0.48476 | 86 ft | 3 kts | 180° |
| 2026-05-05 13:46 | 51.47307 | -0.48476 | 86 ft | 3 kts | 180° |
| 2026-05-05 13:46 | 51.47320 | -0.48476 | 86 ft | 0 kts | 180° |
| 2026-05-05 13:48 | 51.47311 | -0.48475 | 86 ft | 3 kts | 177° |
| 2026-05-05 13:49 | 51.47262 | -0.48472 | 87 ft | 9 kts | 179° |
| 2026-05-05 13:49 | 51.47194 | -0.48471 | 89 ft | 11 kts | 179° |
| 2026-05-05 13:49 | 51.47113 | -0.48470 | 88 ft | 13 kts | 179° |
| 2026-05-05 13:49 | 51.47021 | -0.48469 | 87 ft | 14 kts | 179° |
| 2026-05-05 13:50 | 51.46926 | -0.48468 | 86 ft | 14 kts | 180° |
| 2026-05-05 13:50 | 51.46825 | -0.48466 | 86 ft | 15 kts | 176° |
| 2026-05-05 13:50 | 51.46712 | -0.48464 | 91 ft | 17 kts | 182° |
| 2026-05-05 13:50 | 51.46635 | -0.48467 | 86 ft | 6 kts | 180° |
| 2026-05-05 13:51 | 51.46621 | -0.48467 | 86 ft | 2 kts | 180° |
| 2026-05-05 13:51 | 51.46612 | -0.48467 | 86 ft | 0 kts | 180° |
| 2026-05-05 13:52 | 51.46561 | -0.48467 | 86 ft | 11 kts | 180° |
| 2026-05-05 13:52 | 51.46481 | -0.48407 | 88 ft | 13 kts | 102° |
| 2026-05-05 13:52 | 51.46480 | -0.48338 | 87 ft | 0 kts | 88° |
| 2026-05-05 13:54 | 51.46480 | -0.48336 | 87 ft | 2 kts | 88° |
| 2026-05-05 13:54 | 51.46484 | -0.48007 | 89 ft | 64 kts | 89° |
| 2026-05-05 13:54 | 51.46489 | -0.46963 | 88 ft | 120 kts | 89° |
| 2026-05-05 13:54 | 51.46499 | -0.45429 | 158 ft | 154 kts | 90° |
| 2026-05-05 13:55 | 51.46397 | -0.43598 | 422 ft | 178 kts | 94° |
| 2026-05-05 13:55 | 51.46290 | -0.41541 | 953 ft | 189 kts | 87° |
| 2026-05-05 13:55 | 51.46560 | -0.39519 | 1693 ft | 183 kts | 58° |
| 2026-05-05 13:55 | 51.47386 | -0.38073 | 2442 ft | 175 kts | 41° |
| 2026-05-05 13:56 | 51.48332 | -0.36705 | 2777 ft | 195 kts | 42° |
| 2026-05-05 13:56 | 51.49371 | -0.35125 | 3117 ft | 216 kts | 44° |
| 2026-05-05 13:56 | 51.50492 | -0.33305 | 3472 ft | 241 kts | 46° |
| 2026-05-05 13:56 | 51.51655 | -0.31294 | 4177 ft | 250 kts | 49° |
| 2026-05-05 13:57 | 51.52521 | -0.28829 | 4965 ft | 258 kts | 67° |
| 2026-05-05 13:57 | 51.53159 | -0.26106 | 5700 ft | 264 kts | 69° |
| 2026-05-05 13:57 | 51.53765 | -0.23309 | 5939 ft | 265 kts | 70° |
| 2026-05-05 13:57 | 51.54442 | -0.20566 | 5998 ft | 264 kts | 56° |
| 2026-05-05 13:58 | 51.55805 | -0.18677 | 6004 ft | 263 kts | 22° |
| 2026-05-05 13:58 | 51.57590 | -0.17967 | 6427 ft | 266 kts | 10° |
| 2026-05-05 13:58 | 51.59400 | -0.17299 | 7268 ft | 270 kts | 13° |
| 2026-05-05 13:58 | 51.61192 | -0.16635 | 8076 ft | 274 kts | 13° |
| 2026-05-05 13:59 | 51.64965 | -0.15181 | 9712 ft | 283 kts | 14° |
| 2026-05-05 13:59 | 51.66887 | -0.14369 | 10321 ft | 292 kts | 14° |
| 2026-05-05 14:00 | 51.70993 | -0.11993 | 10631 ft | 338 kts | 31° |
| 2026-05-05 14:00 | 51.72293 | -0.10519 | 10714 ft | 353 kts | 39° |
| 2026-05-05 14:00 | 51.74458 | -0.06446 | 11234 ft | 368 kts | 58° |
| 2026-05-05 14:00 | 51.75508 | -0.02674 | 11815 ft | 373 kts | 73° |
| 2026-05-05 14:01 | 51.75998 | 0.01456 | 12426 ft | 376 kts | 82° |
| 2026-05-05 14:01 | 51.76349 | 0.05656 | 13095 ft | 379 kts | 82° |
| 2026-05-05 14:01 | 51.76582 | 0.08498 | 13532 ft | 381 kts | 82° |
| 2026-05-05 14:01 | 51.77043 | 0.14132 | 14332 ft | 384 kts | 82° |
| 2026-05-05 14:02 | 51.77280 | 0.17042 | 14709 ft | 386 kts | 82° |
| 2026-05-05 14:02 | 51.77629 | 0.21308 | 15255 ft | 390 kts | 82° |
| 2026-05-05 14:02 | 51.77984 | 0.25647 | 15816 ft | 393 kts | 82° |
| 2026-05-05 14:02 | 51.78340 | 0.30039 | 16365 ft | 396 kts | 82° |
| 2026-05-05 14:03 | 51.78696 | 0.34469 | 16944 ft | 399 kts | 82° |
| 2026-05-05 14:03 | 51.79052 | 0.38944 | 17509 ft | 403 kts | 83° |
| 2026-05-05 14:03 | 51.79409 | 0.43446 | 18070 ft | 406 kts | 83° |
| 2026-05-05 14:03 | 51.79769 | 0.48000 | 18577 ft | 410 kts | 83° |
| 2026-05-05 14:04 | 51.80131 | 0.52582 | 19058 ft | 413 kts | 83° |
| 2026-05-05 14:04 | 51.80492 | 0.57204 | 19560 ft | 416 kts | 83° |
| 2026-05-05 14:04 | 51.80856 | 0.61847 | 20025 ft | 419 kts | 83° |
| 2026-05-05 14:04 | 51.81322 | 0.66527 | 20434 ft | 424 kts | 77° |
| 2026-05-05 14:05 | 51.82036 | 0.71166 | 20852 ft | 427 kts | 77° |
| 2026-05-05 14:05 | 51.82753 | 0.75820 | 21270 ft | 430 kts | 77° |
| 2026-05-05 14:05 | 51.83477 | 0.80528 | 21680 ft | 433 kts | 77° |
| 2026-05-05 14:05 | 51.84239 | 0.85265 | 22069 ft | 436 kts | 75° |
| 2026-05-05 14:06 | 51.85074 | 0.89986 | 22442 ft | 439 kts | 75° |
| 2026-05-05 14:06 | 51.85957 | 0.94722 | 22828 ft | 441 kts | 74° |
| 2026-05-05 14:06 | 51.86859 | 0.99465 | 23200 ft | 443 kts | 74° |
| 2026-05-05 14:06 | 51.87770 | 1.04275 | 23595 ft | 444 kts | 75° |
| 2026-05-05 14:07 | 51.88664 | 1.09077 | 23904 ft | 446 kts | 75° |
| 2026-05-05 14:07 | 51.89543 | 1.13897 | 24198 ft | 448 kts | 75° |
| 2026-05-05 14:07 | 51.90415 | 1.18767 | 24502 ft | 451 kts | 75° |
| 2026-05-05 14:07 | 51.91278 | 1.23635 | 24789 ft | 453 kts | 75° |
| 2026-05-05 14:08 | 51.92137 | 1.28482 | 25080 ft | 455 kts | 76° |
| 2026-05-05 14:08 | 51.93023 | 1.33491 | 25369 ft | 457 kts | 75° |
| 2026-05-05 14:08 | 51.93882 | 1.38350 | 25728 ft | 457 kts | 76° |
| 2026-05-05 14:08 | 51.94758 | 1.43285 | 26156 ft | 456 kts | 75° |
| 2026-05-05 14:09 | 51.95633 | 1.48202 | 26578 ft | 456 kts | 76° |
| 2026-05-05 14:09 | 51.96508 | 1.53132 | 26954 ft | 456 kts | 76° |
| 2026-05-05 14:09 | 51.97372 | 1.58022 | 27346 ft | 456 kts | 76° |
| 2026-05-05 14:09 | 51.98243 | 1.62976 | 27765 ft | 456 kts | 76° |
| 2026-05-05 14:10 | 51.99109 | 1.67925 | 28189 ft | 455 kts | 76° |
| 2026-05-05 14:10 | 51.99940 | 1.72854 | 28629 ft | 455 kts | 77° |
| 2026-05-05 14:10 | 52.00729 | 1.77822 | 29060 ft | 454 kts | 77° |
| 2026-05-05 14:10 | 52.01485 | 1.82785 | 29501 ft | 453 kts | 78° |
| 2026-05-05 14:11 | 52.02227 | 1.87766 | 29941 ft | 453 kts | 78° |
| 2026-05-05 14:11 | 52.02967 | 1.92721 | 30335 ft | 452 kts | 78° |
| 2026-05-05 14:11 | 52.03716 | 1.97691 | 30704 ft | 452 kts | 78° |
| 2026-05-05 14:11 | 52.04471 | 2.02651 | 31054 ft | 453 kts | 78° |
| 2026-05-05 14:12 | 52.05230 | 2.07607 | 31412 ft | 453 kts | 78° |
| 2026-05-05 14:12 | 52.05993 | 2.12578 | 31781 ft | 453 kts | 78° |
| 2026-05-05 14:12 | 52.06757 | 2.17555 | 32156 ft | 453 kts | 78° |
| 2026-05-05 14:12 | 52.07518 | 2.22520 | 32530 ft | 453 kts | 78° |
| 2026-05-05 14:13 | 52.08275 | 2.27499 | 32905 ft | 453 kts | 78° |
| 2026-05-05 14:13 | 52.09025 | 2.32470 | 33284 ft | 453 kts | 78° |
| 2026-05-05 14:13 | 52.09773 | 2.37459 | 33652 ft | 453 kts | 78° |
| 2026-05-05 14:13 | 52.10506 | 2.42378 | 34015 ft | 453 kts | 78° |
| 2026-05-05 14:14 | 52.11247 | 2.47356 | 34296 ft | 453 kts | 78° |
| 2026-05-05 14:14 | 52.12043 | 2.52379 | 34628 ft | 452 kts | 76° |
| 2026-05-05 14:14 | 52.12927 | 2.57289 | 34892 ft | 453 kts | 74° |
| 2026-05-05 14:14 | 52.13869 | 2.62122 | 34962 ft | 456 kts | 73° |
| 2026-05-05 14:15 | 52.15890 | 2.72143 | 34967 ft | 467 kts | 73° |
| 2026-05-05 14:15 | 52.17836 | 2.82126 | 34961 ft | 469 kts | 74° |
| 2026-05-05 14:16 | 52.19738 | 2.92293 | 34964 ft | 469 kts | 75° |
| 2026-05-05 14:16 | 52.21622 | 3.02508 | 34960 ft | 470 kts | 75° |
| 2026-05-05 14:17 | 52.23500 | 3.12663 | 34963 ft | 470 kts | 75° |
| 2026-05-05 14:17 | 52.25047 | 3.22997 | 34967 ft | 468 kts | 86° |
| 2026-05-05 14:18 | 52.24874 | 3.33543 | 34964 ft | 464 kts | 100° |
| 2026-05-05 14:18 | 52.24036 | 3.43887 | 34956 ft | 465 kts | 100° |
| 2026-05-05 14:19 | 52.23187 | 3.54348 | 34953 ft | 465 kts | 100° |
| 2026-05-05 14:19 | 52.22332 | 3.64797 | 34964 ft | 464 kts | 101° |
| 2026-05-05 14:20 | 52.21474 | 3.75181 | 34960 ft | 463 kts | 101° |
| 2026-05-05 14:20 | 52.20600 | 3.85583 | 34967 ft | 463 kts | 101° |
| 2026-05-05 14:21 | 52.19725 | 3.95901 | 34948 ft | 462 kts | 102° |
| 2026-05-05 14:21 | 52.18833 | 4.06346 | 34937 ft | 463 kts | 102° |
| 2026-05-05 14:22 | 52.17931 | 4.16749 | 34934 ft | 463 kts | 102° |
| 2026-05-05 14:22 | 52.17025 | 4.27119 | 34943 ft | 464 kts | 102° |
| 2026-05-05 14:23 | 52.16112 | 4.37454 | 34947 ft | 464 kts | 102° |
| 2026-05-05 14:23 | 52.15180 | 4.47908 | 34944 ft | 464 kts | 102° |
| 2026-05-05 14:24 | 52.14244 | 4.58247 | 34928 ft | 464 kts | 102° |
| 2026-05-05 14:24 | 52.13295 | 4.68627 | 34940 ft | 464 kts | 102° |
| 2026-05-05 14:25 | 52.12342 | 4.78971 | 34945 ft | 464 kts | 103° |
| 2026-05-05 14:25 | 52.11381 | 4.89353 | 34934 ft | 464 kts | 103° |
| 2026-05-05 14:26 | 52.10406 | 4.99734 | 34922 ft | 464 kts | 103° |
| 2026-05-05 14:26 | 52.09418 | 5.10118 | 34933 ft | 464 kts | 103° |
| 2026-05-05 14:27 | 52.08426 | 5.20484 | 34928 ft | 464 kts | 103° |
| 2026-05-05 14:27 | 52.07430 | 5.30830 | 34924 ft | 464 kts | 103° |
| 2026-05-05 14:28 | 52.06414 | 5.41201 | 34908 ft | 465 kts | 103° |
| 2026-05-05 14:28 | 52.05393 | 5.51562 | 34905 ft | 465 kts | 103° |
| 2026-05-05 14:29 | 52.04362 | 5.61949 | 34911 ft | 466 kts | 103° |
| 2026-05-05 14:29 | 52.03324 | 5.72325 | 34928 ft | 466 kts | 103° |
| 2026-05-05 14:30 | 52.02273 | 5.82720 | 34919 ft | 466 kts | 103° |
| 2026-05-05 14:30 | 52.01215 | 5.93080 | 34906 ft | 466 kts | 104° |
| 2026-05-05 14:31 | 52.00140 | 6.03471 | 34915 ft | 466 kts | 104° |
| 2026-05-05 14:31 | 51.99060 | 6.13832 | 34918 ft | 466 kts | 104° |
| 2026-05-05 14:32 | 51.97979 | 6.24127 | 34918 ft | 466 kts | 104° |
| 2026-05-05 14:32 | 51.96876 | 6.34494 | 34921 ft | 466 kts | 104° |
| 2026-05-05 14:33 | 51.95774 | 6.44838 | 34897 ft | 467 kts | 104° |
| 2026-05-05 14:33 | 51.94653 | 6.55240 | 34893 ft | 468 kts | 104° |
| 2026-05-05 14:34 | 51.93524 | 6.65600 | 34896 ft | 469 kts | 104° |
| 2026-05-05 14:34 | 51.92386 | 6.76000 | 34901 ft | 469 kts | 104° |
| 2026-05-05 14:35 | 51.91232 | 6.86410 | 34889 ft | 470 kts | 104° |
| 2026-05-05 14:35 | 51.90073 | 6.96849 | 34886 ft | 471 kts | 104° |
| 2026-05-05 14:36 | 51.88901 | 7.07271 | 34891 ft | 472 kts | 104° |
| 2026-05-05 14:36 | 51.87712 | 7.17728 | 34898 ft | 473 kts | 104° |
| 2026-05-05 14:37 | 51.86515 | 7.28185 | 34902 ft | 473 kts | 104° |
| 2026-05-05 14:37 | 51.85312 | 7.38642 | 34892 ft | 472 kts | 105° |
| 2026-05-05 14:38 | 51.84106 | 7.49028 | 34899 ft | 472 kts | 105° |
| 2026-05-05 14:38 | 51.82875 | 7.59516 | 34903 ft | 472 kts | 105° |
| 2026-05-05 14:39 | 51.81656 | 7.69858 | 34897 ft | 471 kts | 105° |
| 2026-05-05 14:39 | 51.80414 | 7.80264 | 34875 ft | 471 kts | 106° |
| 2026-05-05 14:40 | 51.79166 | 7.90672 | 34878 ft | 472 kts | 106° |
| 2026-05-05 14:40 | 51.77904 | 8.01099 | 34881 ft | 473 kts | 106° |
| 2026-05-05 14:41 | 51.76640 | 8.11414 | 34888 ft | 473 kts | 106° |
| 2026-05-05 14:41 | 51.75365 | 8.21811 | 34891 ft | 472 kts | 107° |
| 2026-05-05 14:42 | 51.74089 | 8.32180 | 34881 ft | 471 kts | 107° |
| 2026-05-05 14:42 | 51.72795 | 8.42536 | 34883 ft | 471 kts | 107° |
| 2026-05-05 14:43 | 51.71498 | 8.52870 | 34884 ft | 470 kts | 107° |
| 2026-05-05 14:43 | 51.70194 | 8.63130 | 34883 ft | 470 kts | 107° |
| 2026-05-05 14:44 | 51.68875 | 8.73439 | 34883 ft | 470 kts | 107° |
| 2026-05-05 14:44 | 51.67555 | 8.83749 | 34865 ft | 470 kts | 107° |
| 2026-05-05 14:45 | 51.66213 | 8.94057 | 34860 ft | 471 kts | 107° |
| 2026-05-05 14:45 | 51.64860 | 9.04381 | 34857 ft | 471 kts | 107° |
| 2026-05-05 14:46 | 51.63505 | 9.14688 | 34854 ft | 471 kts | 107° |
| 2026-05-05 14:46 | 51.62145 | 9.25003 | 34855 ft | 471 kts | 107° |
| 2026-05-05 14:47 | 51.60767 | 9.35327 | 34859 ft | 471 kts | 107° |
| 2026-05-05 14:47 | 51.59387 | 9.45617 | 34851 ft | 471 kts | 107° |
| 2026-05-05 14:48 | 51.58002 | 9.55853 | 34851 ft | 471 kts | 107° |
| 2026-05-05 14:48 | 51.56591 | 9.66196 | 34849 ft | 471 kts | 108° |
| 2026-05-05 14:49 | 51.55180 | 9.76478 | 34839 ft | 472 kts | 108° |
| 2026-05-05 14:49 | 51.53772 | 9.86693 | 34843 ft | 472 kts | 108° |
| 2026-05-05 14:50 | 51.52336 | 9.96989 | 34848 ft | 472 kts | 108° |
| 2026-05-05 14:50 | 51.50891 | 10.07289 | 34852 ft | 473 kts | 108° |
| 2026-05-05 14:51 | 51.49445 | 10.17567 | 34838 ft | 473 kts | 108° |
| 2026-05-05 14:51 | 51.47986 | 10.27858 | 34852 ft | 473 kts | 108° |
| 2026-05-05 14:52 | 51.46525 | 10.38126 | 34861 ft | 473 kts | 108° |
| 2026-05-05 14:52 | 51.45048 | 10.48373 | 34868 ft | 473 kts | 108° |
| 2026-05-05 14:53 | 51.43514 | 10.58571 | 34869 ft | 472 kts | 109° |
| 2026-05-05 14:53 | 51.42158 | 10.67049 | 34866 ft | 472 kts | 109° |
| 2026-05-05 14:54 | 51.40509 | 10.77210 | 34872 ft | 472 kts | 109° |
| 2026-05-05 14:54 | 51.38873 | 10.87383 | 34880 ft | 472 kts | 109° |
| 2026-05-05 14:55 | 51.37248 | 10.97531 | 34880 ft | 471 kts | 109° |
| 2026-05-05 14:55 | 51.35614 | 11.07631 | 34870 ft | 471 kts | 109° |
| 2026-05-05 14:56 | 51.33945 | 11.17854 | 34865 ft | 472 kts | 109° |
| 2026-05-05 14:56 | 51.32288 | 11.27950 | 34863 ft | 473 kts | 109° |
| 2026-05-05 14:57 | 51.30615 | 11.38103 | 34869 ft | 473 kts | 109° |
| 2026-05-05 14:57 | 51.28927 | 11.48286 | 34873 ft | 473 kts | 109° |
| 2026-05-05 14:58 | 51.27213 | 11.58438 | 34848 ft | 474 kts | 110° |
| 2026-05-05 14:58 | 51.25486 | 11.68616 | 34846 ft | 475 kts | 110° |
| 2026-05-05 14:59 | 51.23767 | 11.78782 | 34843 ft | 476 kts | 109° |
| 2026-05-05 14:59 | 51.22031 | 11.88992 | 34843 ft | 476 kts | 110° |
| 2026-05-05 15:00 | 51.20579 | 11.97460 | 34828 ft | 476 kts | 110° |
| 2026-05-05 15:00 | 51.18541 | 12.09362 | 34835 ft | 477 kts | 109° |
| 2026-05-05 15:01 | 51.16785 | 12.19552 | 34846 ft | 477 kts | 109° |
| 2026-05-05 15:01 | 51.15015 | 12.29734 | 34858 ft | 476 kts | 109° |
| 2026-05-05 15:02 | 51.13224 | 12.39863 | 34860 ft | 475 kts | 110° |
| 2026-05-05 15:02 | 51.11418 | 12.49988 | 34849 ft | 474 kts | 109° |
| 2026-05-05 15:03 | 51.09616 | 12.60073 | 34850 ft | 474 kts | 109° |
| 2026-05-05 15:03 | 51.07810 | 12.70152 | 34850 ft | 473 kts | 110° |
| 2026-05-05 15:04 | 51.06014 | 12.80136 | 34846 ft | 473 kts | 110° |
| 2026-05-05 15:04 | 51.04183 | 12.90257 | 34834 ft | 473 kts | 109° |
| 2026-05-05 15:05 | 51.01432 | 13.05235 | 34842 ft | 473 kts | 110° |
| 2026-05-05 15:06 | 50.99586 | 13.15258 | 34841 ft | 473 kts | 110° |
| 2026-05-05 15:06 | 50.97735 | 13.25253 | 34843 ft | 473 kts | 110° |
| 2026-05-05 15:07 | 50.95866 | 13.35270 | 34834 ft | 473 kts | 109° |
| 2026-05-05 15:07 | 50.94065 | 13.45320 | 34841 ft | 473 kts | 108° |
| 2026-05-05 15:08 | 50.92280 | 13.55335 | 34841 ft | 472 kts | 109° |
| 2026-05-05 15:08 | 50.90409 | 13.65292 | 34840 ft | 471 kts | 112° |
| 2026-05-05 15:09 | 50.87467 | 13.74416 | 34631 ft | 464 kts | 129° |
| 2026-05-05 15:09 | 50.85484 | 13.78430 | 33741 ft | 466 kts | 133° |
| 2026-05-05 15:09 | 50.83422 | 13.82411 | 32675 ft | 469 kts | 133° |
| 2026-05-05 15:09 | 50.81339 | 13.86403 | 31652 ft | 473 kts | 131° |
| 2026-05-05 15:10 | 50.79497 | 13.90719 | 30658 ft | 479 kts | 122° |
| 2026-05-05 15:10 | 50.77863 | 13.95320 | 29672 ft | 481 kts | 122° |
| 2026-05-05 15:10 | 50.76236 | 13.99942 | 28562 ft | 481 kts | 122° |
| 2026-05-05 15:10 | 50.74613 | 14.04570 | 27517 ft | 481 kts | 122° |
| 2026-05-05 15:11 | 50.73011 | 14.09133 | 26510 ft | 481 kts | 122° |
| 2026-05-05 15:11 | 50.71362 | 14.13807 | 25526 ft | 481 kts | 122° |
| 2026-05-05 15:11 | 50.69746 | 14.18358 | 24550 ft | 481 kts | 122° |
| 2026-05-05 15:11 | 50.68113 | 14.22941 | 23647 ft | 479 kts | 122° |
| 2026-05-05 15:12 | 50.66466 | 14.27554 | 22884 ft | 474 kts | 122° |
| 2026-05-05 15:12 | 50.64853 | 14.32066 | 22211 ft | 470 kts | 122° |
| 2026-05-05 15:12 | 50.63038 | 14.36267 | 21554 ft | 460 kts | 135° |
| 2026-05-05 15:12 | 50.60672 | 14.39452 | 20916 ft | 450 kts | 150° |
| 2026-05-05 15:13 | 50.57860 | 14.41459 | 20281 ft | 441 kts | 166° |
| 2026-05-05 15:13 | 50.54862 | 14.42162 | 19667 ft | 434 kts | 181° |
| 2026-05-05 15:13 | 50.51886 | 14.41573 | 19064 ft | 429 kts | 196° |
| 2026-05-05 15:13 | 50.49144 | 14.39802 | 18476 ft | 425 kts | 211° |
| 2026-05-05 15:14 | 50.46652 | 14.37353 | 17867 ft | 423 kts | 209° |
| 2026-05-05 15:14 | 50.43957 | 14.35558 | 17177 ft | 421 kts | 197° |
| 2026-05-05 15:14 | 50.41093 | 14.34683 | 16529 ft | 418 kts | 186° |
| 2026-05-05 15:14 | 50.38193 | 14.34707 | 15900 ft | 416 kts | 175° |
| 2026-05-05 15:15 | 50.35337 | 14.35296 | 15278 ft | 413 kts | 173° |
| 2026-05-05 15:15 | 50.32516 | 14.35874 | 14668 ft | 409 kts | 174° |
| 2026-05-05 15:15 | 50.29709 | 14.36436 | 14068 ft | 404 kts | 174° |
| 2026-05-05 15:15 | 50.26942 | 14.36985 | 13468 ft | 399 kts | 174° |
| 2026-05-05 15:16 | 50.24191 | 14.37529 | 12810 ft | 394 kts | 174° |
| 2026-05-05 15:16 | 50.21494 | 14.38060 | 12152 ft | 387 kts | 174° |
| 2026-05-05 15:16 | 50.18891 | 14.38574 | 11515 ft | 367 kts | 174° |
| 2026-05-05 15:16 | 50.16427 | 14.39177 | 10908 ft | 351 kts | 166° |
| 2026-05-05 15:17 | 50.14218 | 14.40608 | 10311 ft | 339 kts | 150° |
| 2026-05-05 15:17 | 50.12407 | 14.42866 | 9712 ft | 329 kts | 134° |
| 2026-05-05 15:17 | 50.11016 | 14.45610 | 9067 ft | 319 kts | 128° |
| 2026-05-05 15:17 | 50.09699 | 14.48341 | 8422 ft | 311 kts | 128° |
| 2026-05-05 15:18 | 50.08412 | 14.50990 | 7873 ft | 301 kts | 128° |
| 2026-05-05 15:18 | 50.07167 | 14.53536 | 7375 ft | 292 kts | 128° |
| 2026-05-05 15:18 | 50.05957 | 14.56004 | 6890 ft | 283 kts | 128° |
| 2026-05-05 15:18 | 50.04776 | 14.58416 | 6401 ft | 276 kts | 127° |
| 2026-05-05 15:19 | 50.03626 | 14.60766 | 5906 ft | 270 kts | 127° |
| 2026-05-05 15:19 | 50.02501 | 14.63069 | 5408 ft | 265 kts | 126° |
| 2026-05-05 15:19 | 50.01391 | 14.65337 | 4940 ft | 259 kts | 126° |
| 2026-05-05 15:19 | 50.00350 | 14.67458 | 4959 ft | 239 kts | 126° |
| 2026-05-05 15:20 | 49.99345 | 14.69506 | 4976 ft | 237 kts | 126° |
| 2026-05-05 15:20 | 49.98139 | 14.71221 | 4977 ft | 238 kts | 153° |
| 2026-05-05 15:20 | 49.96554 | 14.71745 | 4979 ft | 238 kts | 185° |
| 2026-05-05 15:20 | 49.95012 | 14.71069 | 4980 ft | 228 kts | 206° |
| 2026-05-05 15:21 | 49.93729 | 14.69647 | 4843 ft | 227 kts | 225° |
| 2026-05-05 15:21 | 49.92824 | 14.67657 | 4493 ft | 229 kts | 245° |
| 2026-05-05 15:21 | 49.92410 | 14.65266 | 4148 ft | 232 kts | 267° |
| 2026-05-05 15:21 | 49.92570 | 14.62790 | 3980 ft | 232 kts | 288° |
| 2026-05-05 15:22 | 49.93275 | 14.60546 | 3971 ft | 232 kts | 308° |
| 2026-05-05 15:22 | 49.94249 | 14.58549 | 3981 ft | 232 kts | 309° |
| 2026-05-05 15:22 | 49.95231 | 14.56555 | 3984 ft | 230 kts | 309° |
| 2026-05-05 15:22 | 49.96170 | 14.54637 | 3971 ft | 216 kts | 308° |
| 2026-05-05 15:23 | 49.97047 | 14.52841 | 4004 ft | 204 kts | 309° |
| 2026-05-05 15:23 | 49.97893 | 14.51109 | 3969 ft | 200 kts | 309° |
| 2026-05-05 15:23 | 49.98736 | 14.49383 | 3974 ft | 200 kts | 309° |
| 2026-05-05 15:23 | 49.99572 | 14.47671 | 3975 ft | 198 kts | 308° |
| 2026-05-05 15:24 | 50.00406 | 14.45960 | 3931 ft | 199 kts | 308° |
| 2026-05-05 15:24 | 50.01237 | 14.44253 | 3738 ft | 198 kts | 309° |
| 2026-05-05 15:24 | 50.02070 | 14.42543 | 3487 ft | 197 kts | 310° |
| 2026-05-05 15:24 | 50.02876 | 14.40884 | 3237 ft | 186 kts | 309° |
| 2026-05-05 15:25 | 50.03635 | 14.39322 | 3005 ft | 178 kts | 309° |
| 2026-05-05 15:25 | 50.04357 | 14.37835 | 2789 ft | 164 kts | 309° |
| 2026-05-05 15:25 | 50.05023 | 14.36464 | 2573 ft | 154 kts | 308° |
| 2026-05-05 15:25 | 50.05660 | 14.35154 | 2374 ft | 150 kts | 309° |
| 2026-05-05 15:26 | 50.06281 | 14.33873 | 2172 ft | 147 kts | 309° |
| 2026-05-05 15:26 | 50.06897 | 14.32605 | 1993 ft | 146 kts | 310° |
| 2026-05-05 15:26 | 50.07510 | 14.31340 | 1792 ft | 148 kts | 309° |
| 2026-05-05 15:26 | 50.08129 | 14.30063 | 1597 ft | 148 kts | 308° |
| 2026-05-05 15:27 | 50.08743 | 14.28787 | 1359 ft | 147 kts | 309° |
| 2026-05-05 15:27 | 50.09355 | 14.27559 | 1224 ft | 130 kts | 310° |
| 2026-05-05 15:27 | 50.09708 | 14.26809 | 1217 ft | 46 kts | 306° |
| 2026-05-05 15:27 | 50.09788 | 14.26631 | 1214 ft | 6 kts | 304° |
| 2026-05-05 15:28 | 50.09823 | 14.26552 | 1213 ft | 17 kts | 304° |
| 2026-05-05 15:28 | 50.09935 | 14.26313 | 1203 ft | 37 kts | 307° |
| 2026-05-05 15:28 | 50.10140 | 14.25907 | 1190 ft | 51 kts | 307° |
| 2026-05-05 15:28 | 50.10312 | 14.25673 | 1187 ft | 24 kts | 354° |
| 2026-05-05 15:29 | 50.10429 | 14.25650 | 1186 ft | 17 kts | 7° |
| 2026-05-05 15:29 | 50.10533 | 14.25704 | 1183 ft | 16 kts | 30° |
| 2026-05-05 15:29 | 50.10623 | 14.25801 | 1176 ft | 16 kts | 34° |
| 2026-05-05 15:29 | 50.10730 | 14.25915 | 1174 ft | 19 kts | 34° |
| 2026-05-05 15:30 | 50.10807 | 14.26001 | 1175 ft | 13 kts | 36° |
| 2026-05-05 15:30 | 50.10888 | 14.26093 | 1175 ft | 17 kts | 36° |
| 2026-05-05 15:30 | 50.10993 | 14.26202 | 1173 ft | 19 kts | 32° |
| 2026-05-05 15:30 | 50.11079 | 14.26322 | 1171 ft | 16 kts | 68° |
| 2026-05-05 15:31 | 50.11080 | 14.26428 | 1173 ft | 4 kts | 94° |
| 2026-05-05 15:31 | 50.11070 | 14.26477 | 1171 ft | 5 kts | 126° |
| 2026-05-05 15:31 | 50.11046 | 14.26519 | 1172 ft | 5 kts | 131° |
| 2026-05-05 15:31 | 50.11041 | 14.26527 | 1174 ft | 0 kts | 131° |
| 2026-05-05 15:32 | 50.11033 | 14.26542 | 1174 ft | 3 kts | 133° |
| 2026-05-05 15:32 | 50.11010 | 14.26576 | 1172 ft | 5 kts | 135° |
| 2026-05-05 15:32 | 50.10983 | 14.26625 | 1175 ft | 8 kts | 130° |
| 2026-05-05 15:33 | 50.10938 | 14.26679 | 1176 ft | 9 kts | 173° |
| 2026-05-05 15:33 | 50.10912 | 14.26663 | 1177 ft | 2 kts | 214° |
| 2026-05-05 15:33 | 50.10902 | 14.26650 | 1174 ft | 0 kts | 220° |
| 2026-05-05 15:34 | 50.10897 | 14.26646 | 1175 ft | 2 kts | 211° |
| 2026-05-05 15:34 | 50.10896 | 14.26644 | 1175 ft | 0 kts | 212° |